Česky Dansk Deutsch English Español Suomi Français Magyar Italiano Nederlands norsk Polski Português svenska Türkçe

 

Het Weer

Ankara / Esenboga (Turkije)

00:20, 3 augustus 2016 (GMT)

NWNNE
WE
SWSSE
Home            
Ankara / Esenboga Ankara / Guvercin Lik Ankara / Etimesgut Murted Tur-Afb Sivrihisar Zonguldak Nevsehir Eskisehir Merzifon Konya Topel Tur-Afb Afyon Kayseri / Erkilet Bursa / Yenisehir, Mil-Civ Tokat Samsun Istanbul / Sabiha Gokcen Samsun / Carsamba Bursa Isparta Suleyman Demirel Sivas Usak

Om een weerknop op uw website of weblog te plaatsen, copieer onderstaande code en plak die in uw pagina. In het eerste vakje staat HTML-code, in het tweede vakje UBB-code.


Add to Google

Details

Wind speed:3 bf, 8 kn, 4.1 m/s, 9.2 miles/h, 14.8 km/h
Wind direction:NNE, 020°
Visibility:Greater than 10000 m, 10 km, 32800 ft, 6.2 miles
Clouds:Aufgelockert bewölkt at 4000 ft, 1219 m
Temperature:22°C, 72°F
Gefühlte Temperatur:25°C, 77°F
Dew-point:10°C, 50°F
Atmospheric pressure:1012 hPa, 759.1 mmHg, 29.88 inHg, 0.999 atm
Relative humidity:46.4 %
METAR:LTAC 030020Z 02008KT 9999 SCT040 22/10 Q1012 NOSIG

Snelkoppelingen

Actuele weersinformatie van de hele wereld. Voeg locaties toe met het plus (+) symbool. Deze snelkoppelingen kunnen worden toegevoegd aan Google.

Lid van de Technetium groep

website free tracking
StatCounter NetStat W3C Validator

19-05-2022 06:07:40
astro.technetium.be money.technetium.be phote.technetium.be tafeltennistafel.technetium.be www.ligfiets.net